Time;durP1;ratioP1;P1;durP2;ratioP2;P2;SDS_P1;SDS_P2;PMS_P1;PMS_P2;Temp;Humidity;BMP_temperature;BMP_pressure;BME280_temperature;BME280_humidity;BME280_pressure;Samples;Min_cycle;Max_cycle;Signal;HPM_P1;HPM_P2
2023/06/28 00:02:10;;;;;;;3.43;1.47;;;13.20;99.90;12.70;99617;;;;593233;239;24010;-75
2023/06/28 00:04:37;;;;;;;8.07;2.47;;;13.30;99.90;12.70;99611;;;;593105;239;24022;-76
2023/06/28 00:07:07;;;;;;;2.77;1.67;;;13.30;99.90;12.70;99617;;;;592804;239;24077;-75
2023/06/28 00:09:36;;;;;;;4.17;1.90;;;13.30;99.90;12.70;99616;;;;592801;239;24124;-79
2023/06/28 00:12:01;;;;;;;2.23;1.87;;;13.30;99.90;12.70;99617;;;;592375;239;24017;-78
2023/06/28 00:14:29;;;;;;;5.17;2.10;;;13.30;99.90;12.60;99621;;;;593006;239;24043;-76
2023/06/28 00:16:57;;;;;;;7.83;2.50;;;13.30;99.90;12.60;99621;;;;592857;239;24054;-78
2023/06/28 00:19:26;;;;;;;2.63;1.83;;;13.20;99.90;12.60;99615;;;;594456;239;24021;-77
2023/06/28 00:21:55;;;;;;;3.33;1.80;;;13.20;99.90;12.50;99618;;;;593931;239;24018;-77
2023/06/28 00:24:23;;;;;;;4.80;1.83;;;13.20;99.90;12.50;99614;;;;593996;239;24068;-79
2023/06/28 00:26:51;;;;;;;5.97;2.00;;;13.20;99.90;12.50;99619;;;;594028;239;24025;-79
2023/06/28 00:29:19;;;;;;;5.17;1.87;;;13.20;99.90;12.50;99619;;;;593805;239;24019;-77
2023/06/28 00:31:47;;;;;;;4.17;2.00;;;13.20;99.90;12.50;99617;;;;593795;239;24023;-77
2023/06/28 00:34:15;;;;;;;5.87;2.30;;;13.10;99.90;12.50;99614;;;;593501;239;24050;-77
2023/06/28 00:36:43;;;;;;;9.17;2.10;;;13.10;99.90;12.50;99617;;;;593674;239;24034;-79
2023/06/28 00:39:11;;;;;;;8.87;1.90;;;13.10;99.90;12.60;99609;;;;593252;239;24063;-79
2023/06/28 00:41:38;;;;;;;2.20;2.00;;;13.20;99.90;12.60;99616;;;;593031;239;24075;-78
2023/06/28 00:44:09;;;;;;;3.87;2.03;;;13.20;99.90;12.70;99606;;;;598733;239;24027;-78
2023/06/28 00:46:37;;;;;;;4.03;1.67;;;13.30;99.90;12.70;99607;;;;594070;239;24108;-79
2023/06/28 00:49:08;;;;;;;7.13;1.90;;;13.30;99.90;12.70;99609;;;;593783;239;24029;-78
2023/06/28 00:51:35;;;;;;;6.77;2.17;;;13.40;99.90;12.80;99604;;;;593302;239;24051;-77
2023/06/28 00:54:02;;;;;;;7.10;2.40;;;13.40;99.90;12.80;99602;;;;592892;239;24093;-78
2023/06/28 00:56:33;;;;;;;4.93;2.20;;;13.40;99.90;12.80;99608;;;;591329;239;24051;-78
2023/06/28 00:59:00;;;;;;;4.57;2.20;;;13.40;99.90;12.80;99612;;;;593042;239;24081;-78
2023/06/28 01:01:25;;;;;;;5.80;1.70;;;13.40;99.90;12.80;99615;;;;593887;239;24091;-79
2023/06/28 01:03:57;;;;;;;6.07;1.93;;;13.40;99.90;12.80;99619;;;;594085;239;24028;-78
2023/06/28 01:06:24;;;;;;;3.17;1.97;;;13.40;99.90;12.80;99609;;;;593172;239;24030;-78
2023/06/28 01:08:49;;;;;;;6.97;1.77;;;13.40;99.90;12.80;99616;;;;592678;239;24054;-79
2023/06/28 01:11:17;;;;;;;4.50;1.63;;;13.40;99.90;12.80;99618;;;;599585;239;24070;-79
2023/06/28 01:13:48;;;;;;;4.03;1.77;;;13.40;99.90;12.80;99613;;;;590500;239;24071;-79
2023/06/28 01:16:13;;;;;;;4.37;2.30;;;13.40;99.90;12.80;99613;;;;590311;239;24110;-78
2023/06/28 01:18:41;;;;;;;4.53;1.80;;;13.40;99.90;12.80;99609;;;;593323;239;24029;-78
2023/06/28 01:21:11;;;;;;;2.57;2.23;;;13.40;99.90;12.70;99611;;;;593123;239;24037;-79
2023/06/28 01:23:42;;;;;;;2.20;2.00;;;13.30;99.90;12.70;99608;;;;600312;239;24102;-79
2023/06/28 01:26:06;;;;;;;3.57;2.17;;;13.40;99.90;12.70;99607;;;;591559;239;24055;-78
2023/06/28 01:28:35;;;;;;;4.93;2.30;;;13.40;99.90;12.70;99614;;;;593645;239;24054;-79
2023/06/28 01:31:06;;;;;;;7.17;2.37;;;13.30;99.90;12.70;99611;;;;592714;239;24020;-78
2023/06/28 01:33:30;;;;;;;4.50;2.60;;;13.40;99.90;12.80;99608;;;;592188;239;24106;-77
2023/06/28 01:35:58;;;;;;;3.33;2.37;;;13.40;99.90;12.90;99607;;;;594688;239;24069;-79
2023/06/28 01:38:27;;;;;;;4.67;2.13;;;13.50;99.90;12.90;99601;;;;593966;239;24033;-76
2023/06/28 01:40:55;;;;;;;1.93;1.83;;;13.50;99.90;12.90;99608;;;;593244;239;24068;-78
2023/06/28 01:43:27;;;;;;;5.60;2.33;;;13.60;99.90;13.00;99601;;;;600532;239;24096;-78
2023/06/28 01:45:51;;;;;;;4.10;2.00;;;13.60;99.90;13.10;99608;;;;592981;239;24030;-78
2023/06/28 01:48:22;;;;;;;8.67;2.87;;;13.80;99.90;13.20;99601;;;;593337;239;24089;-79
2023/06/28 01:50:51;;;;;;;8.97;2.53;;;13.80;99.90;13.20;99601;;;;590491;239;24091;-80
2023/06/28 01:53:20;;;;;;;4.00;2.60;;;13.80;99.90;13.30;99592;;;;590809;239;24029;-78
2023/06/28 01:55:47;;;;;;;7.03;2.80;;;13.90;99.90;13.30;99594;;;;590909;239;24034;-76
2023/06/28 01:58:12;;;;;;;10.77;2.90;;;13.90;99.90;13.40;99586;;;;592955;239;24052;-78
2023/06/28 02:00:41;;;;;;;3.47;2.17;;;14.00;99.90;13.40;99586;;;;591090;239;24046;-75
2023/06/28 02:03:12;;;;;;;6.87;2.90;;;14.10;99.90;13.50;99589;;;;593555;239;24016;-77
2023/06/28 02:05:40;;;;;;;4.47;2.80;;;14.10;99.90;13.60;99590;;;;593131;239;24035;-79
2023/06/28 02:08:05;;;;;;;2.43;2.03;;;14.10;99.90;13.60;99584;;;;593091;239;24035;-78
2023/06/28 02:10:37;;;;;;;4.73;2.27;;;14.20;99.90;13.70;99584;;;;584382;239;24061;-77
2023/06/28 02:13:01;;;;;;;6.60;2.60;;;14.30;99.90;13.70;99589;;;;592456;239;24141;-77
2023/06/28 02:15:29;;;;;;;5.03;2.93;;;14.30;99.90;13.80;99587;;;;592786;239;24023;-80
2023/06/28 02:17:58;;;;;;;4.13;2.23;;;14.40;99.90;13.80;99591;;;;592965;239;24116;-79
2023/06/28 02:20:28;;;;;;;2.87;2.27;;;14.40;99.90;13.90;99593;;;;592769;239;24047;-79
2023/06/28 02:22:52;;;;;;;3.87;2.70;;;14.50;99.90;14.00;99594;;;;590654;239;24041;-78
2023/06/28 02:25:21;;;;;;;9.53;2.70;;;14.60;99.90;14.00;99591;;;;593188;239;24033;-76
2023/06/28 02:27:49;;;;;;;7.50;2.67;;;14.60;99.90;14.10;99600;;;;593242;239;24018;-76
2023/06/28 02:30:18;;;;;;;4.27;2.27;;;14.70;99.90;14.10;99588;;;;593228;239;24064;-78
2023/06/28 02:32:45;;;;;;;6.63;2.40;;;14.70;99.90;14.10;99588;;;;593184;239;24029;-78
2023/06/28 02:35:14;;;;;;;4.10;2.40;;;14.80;99.90;14.20;99581;;;;593281;239;24068;-78
2023/06/28 02:37:42;;;;;;;3.83;2.40;;;14.80;99.90;14.20;99586;;;;593169;239;24067;-81
2023/06/28 02:40:14;;;;;;;6.40;2.50;;;14.80;99.90;14.20;99582;;;;592608;239;24028;-78
2023/06/28 02:42:38;;;;;;;4.27;2.30;;;14.80;99.90;14.20;99586;;;;588574;240;24065;-78
2023/06/28 02:45:06;;;;;;;3.90;2.20;;;14.80;99.90;14.30;99583;;;;573405;247;24132;-78
2023/06/28 02:47:35;;;;;;;4.00;2.00;;;14.90;99.90;14.30;99589;;;;573138;247;24083;-78
2023/06/28 02:50:06;;;;;;;4.23;2.17;;;14.90;99.90;14.30;99582;;;;573032;247;24144;-79
2023/06/28 02:52:31;;;;;;;5.87;2.27;;;14.90;99.90;14.30;99584;;;;572969;247;24075;-80
2023/06/28 02:55:02;;;;;;;8.03;2.33;;;14.90;99.90;14.30;99580;;;;581424;245;24122;-77
2023/06/28 02:57:26;;;;;;;4.93;1.93;;;14.90;99.90;14.40;99577;;;;596834;239;24073;-77
2023/06/28 02:59:54;;;;;;;5.70;2.23;;;14.90;99.90;14.40;99572;;;;596995;238;24056;-76
2023/06/28 03:02:22;;;;;;;2.53;1.97;;;14.90;99.90;14.40;99579;;;;575150;246;24056;-80
2023/06/28 03:04:50;;;;;;;7.03;2.57;;;14.90;99.90;14.30;99580;;;;582114;245;24102;-76
2023/06/28 03:07:18;;;;;;;5.53;2.70;;;14.90;99.90;14.30;99585;;;;587660;239;24080;-77
2023/06/28 03:09:47;;;;;;;5.57;2.97;;;14.90;99.90;14.30;99580;;;;596771;236;24067;-77
2023/06/28 03:12:15;;;;;;;7.20;2.50;;;14.80;99.90;14.30;99577;;;;591062;241;24053;-77
2023/06/28 03:14:43;;;;;;;8.10;2.70;;;14.80;99.90;14.20;99574;;;;586620;241;24055;-76
2023/06/28 03:17:11;;;;;;;3.67;2.53;;;14.80;99.90;14.20;99580;;;;586698;241;24059;-76
2023/06/28 03:19:39;;;;;;;5.87;2.77;;;14.80;99.90;14.20;99581;;;;586435;241;24112;-77
2023/06/28 03:22:07;;;;;;;2.93;2.63;;;14.80;99.90;14.30;99583;;;;586710;241;24056;-78
2023/06/28 03:24:35;;;;;;;7.90;2.57;;;14.80;99.90;14.30;99585;;;;586829;241;24044;-77
2023/06/28 03:27:02;;;;;;;9.60;2.73;;;14.80;99.90;14.30;99585;;;;586838;241;24040;-78
2023/06/28 03:29:30;;;;;;;4.30;2.53;;;14.80;99.90;14.30;99583;;;;586846;241;24120;-77
2023/06/28 03:31:58;;;;;;;4.87;2.47;;;14.90;99.90;14.30;99579;;;;586791;241;24087;-76
2023/06/28 03:34:26;;;;;;;3.27;2.90;;;14.90;99.90;14.30;99579;;;;586778;241;24063;-78
2023/06/28 03:36:54;;;;;;;4.50;2.70;;;14.90;99.90;14.40;99578;;;;586813;241;24040;-77
2023/06/28 03:39:22;;;;;;;6.43;2.67;;;14.90;99.90;14.40;99579;;;;586797;241;24050;-78
2023/06/28 03:41:51;;;;;;;6.60;2.83;;;15.00;99.90;14.40;99580;;;;586813;241;24059;-76
2023/06/28 03:44:19;;;;;;;3.50;2.47;;;15.00;99.90;14.50;99582;;;;587002;241;24087;-78
2023/06/28 03:46:46;;;;;;;8.20;2.50;;;15.00;99.90;14.50;99578;;;;587044;241;24044;-79
2023/06/28 03:49:14;;;;;;;8.17;2.87;;;15.10;99.90;14.50;99580;;;;586851;241;24040;-78
2023/06/28 03:51:45;;;;;;;6.80;2.53;;;15.10;99.90;14.60;99586;;;;586419;242;24127;-79
2023/06/28 03:54:10;;;;;;;6.57;2.40;;;15.20;99.90;14.60;99587;;;;585520;241;24061;-78
2023/06/28 03:56:42;;;;;;;8.53;2.37;;;15.20;99.90;14.70;99583;;;;588079;241;24089;-78
2023/06/28 03:59:06;;;;;;;8.90;3.17;;;15.30;99.90;14.80;99597;;;;571199;246;24106;-79
2023/06/28 04:01:34;;;;;;;3.83;2.43;;;15.40;99.90;14.80;99590;;;;584333;242;24061;-77
2023/06/28 04:04:02;;;;;;;5.47;2.80;;;15.40;99.90;14.80;99597;;;;584362;242;24050;-77
2023/06/28 04:06:30;;;;;;;5.10;2.43;;;15.40;99.90;14.90;99595;;;;584215;242;24076;-77
2023/06/28 04:08:58;;;;;;;10.37;2.67;;;15.50;99.90;15.00;99607;;;;584208;242;24118;-77
2023/06/28 04:11:26;;;;;;;6.30;2.50;;;15.60;99.90;15.00;99605;;;;581576;242;24084;-76
2023/06/28 04:13:54;;;;;;;6.70;2.37;;;15.70;99.90;15.10;99609;;;;582059;246;24165;-78
2023/06/28 04:16:22;;;;;;;4.73;2.40;;;15.70;99.90;15.20;99598;;;;584375;242;24044;-78
2023/06/28 04:18:52;;;;;;;3.80;2.50;;;15.80;99.90;15.20;99596;;;;573343;246;24083;-77
2023/06/28 04:21:18;;;;;;;6.13;2.93;;;15.80;99.90;15.30;99597;;;;584196;242;24069;-78
2023/06/28 04:23:46;;;;;;;2.93;2.10;;;15.90;99.90;15.40;99599;;;;573307;246;24086;-78
2023/06/28 04:26:14;;;;;;;11.60;3.43;;;16.00;99.90;15.50;99602;;;;593022;242;24060;-77
2023/06/28 04:28:42;;;;;;;3.30;2.23;;;16.20;99.90;15.60;99607;;;;572934;247;24078;-77
2023/06/28 04:31:10;;;;;;;9.33;2.97;;;16.20;99.90;15.70;99609;;;;583658;242;24141;-78
2023/06/28 04:33:39;;;;;;;8.03;2.50;;;16.30;99.90;15.80;99608;;;;572827;247;24137;-77
2023/06/28 04:36:06;;;;;;;7.27;2.57;;;16.40;99.90;15.90;99607;;;;583789;242;24039;-78
2023/06/28 04:38:39;;;;;;;4.83;2.47;;;16.60;99.90;16.00;99609;;;;572605;247;24111;-77
2023/06/28 04:41:03;;;;;;;3.70;2.53;;;16.60;99.90;16.10;99612;;;;583445;242;24068;-77
2023/06/28 04:43:39;;;;;;;5.57;2.53;;;16.70;99.90;16.20;99611;;;;572592;247;24072;-78
2023/06/28 04:45:59;;;;;;;6.00;2.30;;;16.70;99.90;16.20;99608;;;;583126;242;24122;-80
2023/06/28 04:48:26;;;;;;;5.93;2.97;;;16.80;99.90;16.30;99610;;;;572665;247;24072;-76
2023/06/28 04:50:54;;;;;;;4.87;2.53;;;16.90;99.90;16.40;99608;;;;584083;242;24070;-77
2023/06/28 04:53:23;;;;;;;3.50;2.43;;;17.10;99.90;16.50;99612;;;;572717;247;24079;-78
2023/06/28 04:55:51;;;;;;;5.20;2.43;;;17.10;99.90;16.60;99609;;;;584086;242;24034;-77
2023/06/28 04:58:19;;;;;;;2.50;2.30;;;17.10;99.90;16.60;99609;;;;572867;247;24086;-78
2023/06/28 05:00:47;;;;;;;4.67;2.27;;;17.20;99.90;16.80;99612;;;;583712;242;24051;-76
2023/06/28 05:03:15;;;;;;;7.40;2.60;;;17.30;99.90;16.90;99615;;;;572743;247;24066;-78
2023/06/28 05:05:45;;;;;;;5.43;2.30;;;17.40;99.90;17.00;99617;;;;584982;241;24034;-78
2023/06/28 05:08:10;;;;;;;6.40;2.20;;;17.60;99.90;17.20;99618;;;;581079;241;24144;-77
2023/06/28 05:10:38;;;;;;;4.13;2.13;;;17.70;99.90;17.40;99617;;;;573536;246;24070;-76
2023/06/28 05:13:06;;;;;;;3.53;2.00;;;17.90;99.90;17.60;99622;;;;584422;242;24108;-76
2023/06/28 05:15:35;;;;;;;2.20;2.00;;;18.10;99.90;17.80;99616;;;;585750;240;24061;-76
2023/06/28 05:18:03;;;;;;;5.53;2.17;;;18.30;99.90;18.00;99629;;;;586582;241;24069;-76
2023/06/28 05:20:31;;;;;;;2.53;1.90;;;18.80;99.90;18.30;99624;;;;581853;243;24172;-78
2023/06/28 05:23:14;;;;;;;6.73;2.10;;;18.80;99.90;18.60;99623;;;;582443;242;24046;-79
2023/06/28 05:25:45;;;;;;;8.67;2.50;;;19.10;99.90;19.00;99630;;;;597635;240;24041;-79
2023/06/28 05:28:13;;;;;;;12.10;2.20;;;19.50;99.90;19.20;99628;;;;584347;242;24091;-75
2023/06/28 05:30:41;;;;;;;5.27;2.27;;;19.70;99.90;19.50;99623;;;;596329;240;23096;-75
2023/06/28 05:33:06;;;;;;;15.57;2.80;;;20.00;99.90;19.80;99628;;;;593307;242;24048;-78
2023/06/28 05:35:34;;;;;;;2.97;1.80;;;20.40;99.90;20.10;99633;;;;597093;240;24098;-78
2023/06/28 05:38:02;;;;;;;8.53;2.60;;;20.60;99.90;20.30;99627;;;;590464;242;23100;-77
2023/06/28 05:40:29;;;;;;;3.27;2.20;;;20.90;99.90;20.50;99627;;;;590252;242;24067;-76
2023/06/28 05:43:00;;;;;;;2.63;1.90;;;21.00;99.90;21.00;99628;;;;590575;242;23081;-76
2023/06/28 05:45:28;;;;;;;3.87;1.80;;;21.50;99.90;22.30;99626;;;;590276;242;24079;-77
2023/06/28 05:47:57;;;;;;;5.43;2.00;;;22.60;99.90;24.80;99632;;;;596611;240;24087;-77
2023/06/28 05:50:24;;;;;;;9.00;2.23;;;25.00;99.90;26.40;99638;;;;590089;242;24059;-76
2023/06/28 05:52:52;;;;;;;1.63;1.30;;;26.80;99.90;26.80;99640;;;;583632;242;23157;-76
2023/06/28 05:55:25;;;;;;;3.43;1.70;;;27.40;99.90;26.70;99641;;;;580278;242;23084;-77
2023/06/28 05:57:51;;;;;;;2.73;1.77;;;27.40;99.90;27.40;99645;;;;583268;242;23080;-76
2023/06/28 06:00:19;;;;;;;8.67;1.67;;;27.90;99.90;27.90;99639;;;;569739;247;23166;-76
2023/06/28 06:02:46;;;;;;;4.03;1.80;;;28.50;98.60;28.20;99645;;;;578590;246;23113;-77
2023/06/28 06:05:15;;;;;;;7.68;2.08;;;28.80;96.80;28.30;99652;;;;572835;247;24152;-78
2023/06/28 06:07:42;;;;;;;2.67;1.87;;;29.00;95.30;28.30;99655;;;;575215;248;23126;-74
2023/06/28 06:10:10;;;;;;;9.07;2.00;;;29.00;93.90;28.20;99653;;;;586392;237;23066;-76
2023/06/28 06:12:38;;;;;;;3.10;1.85;;;28.90;93.20;28.00;99657;;;;580581;243;24096;-76
2023/06/28 06:15:06;;;;;;;4.62;2.22;;;28.70;92.50;27.50;99659;;;;580028;243;22976;-75
2023/06/28 06:17:34;;;;;;;8.40;2.03;;;28.30;92.40;26.90;99653;;;;583955;244;24091;-73
2023/06/28 06:20:06;;;;;;;6.30;2.00;;;27.70;93.10;26.60;99662;;;;579220;248;23126;-75
2023/06/28 06:22:30;;;;;;;5.53;1.67;;;27.30;93.60;26.80;99658;;;;575425;248;23102;-76
2023/06/28 06:24:58;;;;;;;3.17;1.50;;;27.20;93.70;27.90;99666;;;;578894;248;23201;-76
2023/06/28 06:27:26;;;;;;;4.62;1.92;;;28.20;93.70;29.00;99666;;;;578933;245;23117;-81
2023/06/28 06:29:54;;;;;;;2.90;1.42;;;29.30;92.10;29.40;99672;;;;574081;250;24114;-76
2023/06/28 06:32:25;;;;;;;7.57;1.70;;;29.90;87.50;29.40;99670;;;;566160;250;23140;-77
2023/06/28 06:34:50;;;;;;;5.30;1.73;;;29.90;87.50;28.90;99671;;;;565666;250;23186;-77
2023/06/28 06:37:18;;;;;;;11.55;2.17;;;29.60;86.10;28.40;99665;;;;565795;250;24167;-79
2023/06/28 06:39:55;;;;;;;5.70;1.85;;;29.20;86.00;27.90;99669;;;;565909;250;23123;-79
2023/06/28 06:42:14;;;;;;;3.72;1.83;;;28.60;87.10;27.40;99665;;;;572193;247;24159;-76
2023/06/28 06:44:42;;;;;;;4.33;1.37;;;28.10;88.10;27.10;99674;;;;566745;250;23145;-78
2023/06/28 06:47:10;;;;;;;2.17;1.43;;;27.70;89.60;27.00;99679;;;;566810;250;24139;-80
2023/06/28 06:49:38;;;;;;;2.80;1.67;;;27.50;90.30;26.90;99683;;;;566014;250;23128;-83
2023/06/28 06:52:06;;;;;;;4.97;1.70;;;27.30;90.30;26.60;99682;;;;571750;247;23100;-80
2023/06/28 06:54:38;;;;;;;6.23;2.43;;;27.10;90.50;26.40;99687;;;;579658;244;24079;-76
2023/06/28 06:57:03;;;;;;;4.53;1.63;;;26.80;91.60;26.30;99684;;;;578694;245;23081;-77
2023/06/28 06:59:34;;;;;;;5.23;1.87;;;26.70;91.50;26.10;99686;;;;580720;242;23085;-77
2023/06/28 07:02:02;;;;;;;10.73;2.60;;;26.60;91.80;26.10;99689;;;;576315;244;23077;-80
2023/06/28 07:04:29;;;;;;;6.13;2.73;;;26.50;92.10;26.00;99690;;;;578121;244;23080;-77
2023/06/28 07:07:00;;;;;;;3.30;1.70;;;26.40;92.30;25.80;99691;;;;578302;243;23073;-81
2023/06/28 07:09:26;;;;;;;3.03;1.90;;;26.30;92.20;25.70;99687;;;;564493;250;23099;-79
2023/06/28 07:11:57;;;;;;;2.80;1.83;;;26.20;92.30;25.60;99697;;;;588068;240;23093;-82
2023/06/28 07:14:21;;;;;;;6.93;2.13;;;26.10;92.40;25.30;99686;;;;585936;241;24040;-81
2023/06/28 07:16:49;;;;;;;6.47;1.70;;;25.80;92.70;25.00;99689;;;;574912;246;23199;-79
2023/06/28 07:19:17;;;;;;;4.03;1.97;;;25.50;93.00;24.80;99697;;;;582614;245;23107;-75
2023/06/28 07:21:46;;;;;;;7.07;1.97;;;25.10;94.20;24.70;99699;;;;588186;241;24118;-78
2023/06/28 07:24:14;;;;;;;6.33;2.30;;;25.20;94.40;24.80;99696;;;;575588;246;24157;-76
2023/06/28 07:26:43;;;;;;;16.07;2.00;;;25.10;94.50;24.80;99700;;;;582516;245;24087;-76
2023/06/28 07:29:11;;;;;;;3.60;1.63;;;25.10;94.50;24.80;99701;;;;589337;240;23108;-76
2023/06/28 07:31:39;;;;;;;3.60;1.40;;;25.20;94.70;25.30;99706;;;;588342;240;23071;-75
2023/06/28 07:34:08;;;;;;;2.40;1.47;;;25.50;94.90;27.90;99718;;;;588040;240;24065;-75
2023/06/28 07:36:35;;;;;;;5.17;1.70;;;27.70;93.40;30.50;99717;;;;587993;239;23067;-77
2023/06/28 07:39:03;;;;;;;2.22;1.25;;;30.30;85.70;32.20;99724;;;;587650;240;23103;-75
2023/06/28 07:41:33;;;;;;;2.33;1.40;;;32.40;79.30;32.40;99719;;;;597079;240;23068;-76
2023/06/28 07:43:59;;;;;;;3.50;1.62;;;33.00;73.30;31.50;99727;;;;585213;245;23101;-76
2023/06/28 07:46:27;;;;;;;4.75;1.55;;;32.50;72.70;30.30;99729;;;;582254;245;23078;-76
2023/06/28 07:48:56;;;;;;;3.00;1.67;;;31.40;73.40;29.20;99732;;;;586819;241;23081;-75
2023/06/28 07:51:23;;;;;;;3.70;1.40;;;30.30;75.50;28.20;99728;;;;588001;241;23081;-78
2023/06/28 07:53:54;;;;;;;3.62;1.42;;;29.20;78.00;27.10;99737;;;;575417;246;24089;-77
2023/06/28 07:56:19;;;;;;;3.25;1.77;;;28.00;80.70;26.30;99745;;;;575898;245;24115;-76
2023/06/28 07:58:46;;;;;;;5.03;1.73;;;27.00;83.80;25.60;99742;;;;587439;241;23078;-75
2023/06/28 08:01:17;;;;;;;3.33;1.77;;;25.50;88.90;25.00;99748;;;;584512;243;23208;-78
2023/06/28 08:03:46;;;;;;;2.67;1.60;;;25.40;88.80;24.50;99742;;;;580054;246;23113;-76
2023/06/28 08:06:11;;;;;;;4.43;2.17;;;24.90;90.70;24.00;99749;;;;595571;238;23072;-80
2023/06/28 08:08:39;;;;;;;2.80;1.73;;;24.50;91.80;23.70;99749;;;;586821;241;23064;-75
2023/06/28 08:11:07;;;;;;;3.67;1.77;;;24.10;92.60;23.40;99750;;;;586829;241;24081;-78
2023/06/28 08:13:35;;;;;;;3.80;2.00;;;23.90;93.30;23.30;99761;;;;586922;241;23098;-76
2023/06/28 08:16:07;;;;;;;5.27;1.70;;;25.10;93.90;25.20;99756;;;;586949;241;23058;-77
2023/06/28 08:18:31;;;;;;;3.17;1.67;;;25.10;93.80;28.30;99764;;;;585298;241;23089;-74
2023/06/28 08:20:59;;;;;;;3.30;1.50;;;27.90;89.50;29.60;99764;;;;586760;241;24100;-75
2023/06/28 08:23:30;;;;;;;5.65;1.95;;;29.70;83.00;31.30;99767;;;;586618;241;23042;-76
2023/06/28 08:25:58;;;;;;;2.85;1.65;;;33.50;71.70;33.30;99771;;;;595778;238;24132;-75
2023/06/28 08:28:24;;;;;;;3.72;2.62;;;33.40;71.50;34.90;99771;;;;586669;241;23062;-77
2023/06/28 08:30:52;;;;;;;4.12;1.92;;;35.20;63.80;35.90;99775;;;;586700;241;24107;-78
2023/06/28 08:33:20;;;;;;;5.43;1.83;;;36.40;61.20;36.90;99782;;;;591961;241;23058;-81
2023/06/28 08:35:48;;;;;;;6.75;2.30;;;37.60;56.70;37.70;99781;;;;586585;241;23067;-76
2023/06/28 08:38:15;;;;;;;7.22;2.67;;;38.20;55.70;39.20;99789;;;;586547;241;23086;-77
2023/06/28 08:40:44;;;;;;;3.58;2.30;;;39.50;52.30;39.50;99792;;;;588229;240;23125;-79
2023/06/28 08:43:11;;;;;;;8.57;2.28;;;40.20;49.90;38.20;99793;;;;587637;240;23073;-76
2023/06/28 08:45:39;;;;;;;5.35;2.33;;;39.50;49.80;39.00;99802;;;;586110;240;23077;-79
2023/06/28 08:48:07;;;;;;;3.60;2.33;;;39.60;50.00;40.60;99797;;;;587259;240;23058;-76
2023/06/28 08:50:35;;;;;;;4.25;2.15;;;40.90;47.70;40.60;99801;;;;596061;240;23120;-80
2023/06/28 08:53:05;;;;;;;5.18;2.20;;;40.90;46.70;39.80;99808;;;;596566;240;23181;-80
2023/06/28 08:55:32;;;;;;;4.47;1.80;;;40.90;46.70;37.80;99809;;;;585964;240;23081;-76
2023/06/28 08:58:00;;;;;;;3.47;2.00;;;39.40;47.30;37.20;99812;;;;587042;241;23069;-76
2023/06/28 09:00:28;;;;;;;3.12;2.50;;;38.30;49.70;38.30;99812;;;;595824;241;23070;-80
2023/06/28 09:02:56;;;;;;;6.32;2.60;;;38.80;48.40;39.20;99819;;;;582143;245;24150;-81
2023/06/28 09:05:24;;;;;;;2.92;1.98;;;39.60;47.40;40.00;99821;;;;596891;236;23084;-80
2023/06/28 09:07:52;;;;;;;3.15;2.03;;;40.50;45.80;40.00;99820;;;;591451;241;23053;-79
2023/06/28 09:10:19;;;;;;;3.08;2.28;;;41.00;44.60;40.40;99824;;;;576014;245;24149;-80
2023/06/28 09:12:47;;;;;;;4.53;2.15;;;41.30;44.60;41.30;99830;;;;585395;242;23094;-87
2023/06/28 09:15:21;;;;;;;3.25;2.05;;;42.00;44.70;42.10;99831;;;;588437;241;23096;-82
2023/06/28 09:17:46;;;;;;;4.53;2.00;;;42.90;43.10;42.40;99839;;;;580099;239;24147;-82
2023/06/28 09:20:19;;;;;;;1.23;1.10;;;43.40;43.40;42.80;99833;;;;580325;243;23039;-79
2023/06/28 09:23:00;;;;;;;3.22;1.70;;;43.80;42.40;43.60;99846;;;;584325;243;23132;-80
2023/06/28 09:25:29;;;;;;;1.87;1.65;;;45.00;41.00;44.20;99845;;;;580593;243;24075;-76
2023/06/28 09:27:54;;;;;;;4.45;1.70;;;44.90;40.90;44.30;99842;;;;590643;239;23031;-77
2023/06/28 09:30:24;;;;;;;5.47;2.62;;;45.20;41.20;44.60;99857;;;;593314;239;23079;-77
2023/06/28 09:32:51;;;;;;;2.60;1.73;;;45.50;40.10;44.90;99860;;;;590741;239;23027;-81
2023/06/28 09:35:23;;;;;;;2.05;1.73;;;45.90;39.90;44.90;99858;;;;593090;239;23058;-82
2023/06/28 09:38:04;;;;;;;2.58;1.67;;;45.00;38.90;43.50;99869;;;;590577;239;23099;-83
2023/06/28 09:40:28;;;;;;;7.57;2.42;;;44.20;39.80;42.80;99865;;;;592739;239;23050;-82
2023/06/28 09:42:56;;;;;;;4.43;1.75;;;44.10;39.70;42.70;99854;;;;593256;239;23126;-78
2023/06/28 09:45:24;;;;;;;3.12;1.80;;;43.70;40.70;42.60;99859;;;;593308;239;23035;-80
2023/06/28 09:47:57;;;;;;;1.85;1.62;;;43.70;40.40;42.20;99874;;;;592744;239;23065;-78
2023/06/28 09:50:37;;;;;;;2.20;1.60;;;43.50;40.40;42.50;99873;;;;590528;237;23102;-81
2023/06/28 09:53:15;;;;;;;1.83;1.45;;;44.00;39.90;43.00;99883;;;;594738;239;23067;-81
2023/06/28 09:55:41;;;;;;;3.03;1.42;;;43.90;40.10;42.70;99879;;;;598124;237;24081;-78
2023/06/28 09:58:14;;;;;;;3.55;1.98;;;43.90;40.10;42.20;99875;;;;591097;239;23130;-77
2023/06/28 10:00:40;;;;;;;2.58;1.92;;;43.60;39.10;41.20;99884;;;;573093;246;23126;-78
2023/06/28 10:03:07;;;;;;;2.78;2.22;;;42.90;39.50;40.90;99881;;;;583909;242;24134;-80
2023/06/28 10:05:39;;;;;;;2.85;2.00;;;42.50;40.10;39.90;99883;;;;573433;246;23120;-78
2023/06/28 10:08:03;;;;;;;2.87;2.08;;;41.70;40.90;38.50;99887;;;;581473;243;23091;-77
2023/06/28 10:10:31;;;;;;;2.85;1.85;;;40.50;41.70;37.50;99889;;;;581488;243;24126;-77
2023/06/28 10:13:02;;;;;;;2.92;2.12;;;39.40;42.90;37.50;99883;;;;590589;234;23066;-79
2023/06/28 10:15:27;;;;;;;2.83;2.22;;;39.10;44.40;37.60;99898;;;;581392;243;23101;-78
2023/06/28 10:17:56;;;;;;;1.48;1.37;;;38.80;44.70;37.80;99895;;;;581515;243;24091;-79
2023/06/28 10:20:24;;;;;;;3.55;1.90;;;38.80;44.70;38.00;99894;;;;581579;243;23069;-78
2023/06/28 10:22:52;;;;;;;2.55;1.67;;;38.90;44.50;37.40;99888;;;;581762;243;23121;-78
2023/06/28 10:25:21;;;;;;;2.15;1.73;;;38.50;45.00;36.20;99888;;;;581644;242;23085;-80
2023/06/28 10:27:48;;;;;;;2.90;1.70;;;36.60;47.40;35.50;99892;;;;584978;241;23076;-77
2023/06/28 10:30:20;;;;;;;2.92;1.87;;;36.50;47.40;34.30;99902;;;;586258;242;23092;-77
2023/06/28 10:32:47;;;;;;;1.65;1.58;;;35.40;48.10;33.70;99892;;;;580754;244;23101;-78
2023/06/28 10:35:12;;;;;;;2.90;1.50;;;34.60;49.40;33.30;99904;;;;580103;244;23069;-76
2023/06/28 10:37:40;;;;;;;1.80;1.40;;;34.10;49.80;32.60;99897;;;;581815;244;24101;-76
2023/06/28 10:40:11;;;;;;;1.40;1.30;;;33.40;50.70;31.90;99899;;;;581840;244;23065;-76
2023/06/28 10:42:45;;;;;;;1.75;1.27;;;32.70;50.90;30.90;99900;;;;582294;243;24101;-78
2023/06/28 10:45:13;;;;;;;1.30;1.20;;;31.90;52.40;30.20;99915;;;;581240;244;23080;-76
2023/06/28 10:47:38;;;;;;;1.23;1.12;;;31.00;54.50;29.40;99907;;;;591472;238;23064;-80
2023/06/28 10:50:09;;;;;;;4.72;1.83;;;30.20;55.70;28.70;99911;;;;596016;238;23080;-77
2023/06/28 10:52:45;;;;;;;2.37;1.33;;;29.40;57.50;28.00;99913;;;;595893;238;23070;-79
2023/06/28 10:55:13;;;;;;;3.85;1.60;;;28.70;59.00;27.60;99919;;;;596059;238;23026;-79
2023/06/28 10:57:41;;;;;;;3.67;1.60;;;28.10;60.70;27.30;99918;;;;595678;237;23117;-79
2023/06/28 11:00:09;;;;;;;2.28;1.12;;;27.80;63.30;27.10;99917;;;;595712;238;24021;-77
2023/06/28 11:03:04;;;;;;;1.85;1.50;;;27.30;63.20;26.90;99916;;;;594664;237;23088;-79
2023/06/28 11:05:44;;;;;;;1.60;1.10;;;27.20;63.10;26.60;99923;;;;596717;237;24048;-77
2023/06/28 11:08:12;;;;;;;2.27;1.50;;;27.00;64.60;26.10;99930;;;;596755;237;23037;-78
2023/06/28 11:10:40;;;;;;;2.53;1.67;;;26.70;64.50;25.80;99923;;;;597138;237;23055;-78
2023/06/28 11:13:11;;;;;;;3.73;1.30;;;26.40;65.50;25.40;99926;;;;594517;237;23081;-82
2023/06/28 11:15:43;;;;;;;1.27;1.27;;;26.00;66.60;25.20;99919;;;;596398;238;23073;-77
2023/06/28 11:18:11;;;;;;;2.63;1.50;;;25.70;68.90;25.10;99931;;;;594474;238;23084;-77
2023/06/28 11:20:50;;;;;;;3.53;1.70;;;25.60;71.00;24.80;99933;;;;593961;238;24014;-77
2023/06/28 11:23:24;;;;;;;3.63;1.80;;;25.40;70.40;24.60;99921;;;;589624;239;23112;-83